Miles, Iowa
Current Conditions -  °F | °C
As of 11:35 PM on Wednesday 26 Nov 2014 (Local Time) from KSFY Reporting Station
Broken Clouds Broken Clouds  
Wind Chill: 15°   Ceiling: 11000
Heat Index: 21°   Visibility: 7mi
Dew Point: 17°   Wind: 5mph
Humidity: 84%   Direction: 330°NNW
Pressure: 30.27"   Gusts: NA
Location:  42.05°N, 90.32°W
Report Text: KSFY 270535Z AUTO 33004KT 7SM SCT080 SCT090 BKN110 M06/M08 A3027 RMK AO2 T10591082
Loading
Personal Weather Stations






























Interactive Weather Map New forecast layout! Learn more

10-Day Weather Forecast

Advertisements
Track Severe Weather on mobile